createdAt,value
2023-01-10T00:01:42.912Z,90.67
2023-01-10T00:04:10.846Z,90.78
2023-01-10T00:06:38.950Z,90.62
2023-01-10T00:09:06.955Z,91.24
2023-01-10T00:11:54.101Z,91.10
2023-01-10T00:14:22.321Z,91.48
2023-01-10T00:16:50.201Z,91.74
2023-01-10T00:19:18.082Z,92.52
2023-01-10T00:21:45.995Z,91.89
2023-01-10T00:24:20.032Z,92.47
2023-01-10T00:26:52.093Z,90.96
2023-01-10T00:29:20.964Z,91.18
2023-01-10T00:31:49.029Z,91.03
2023-01-10T00:34:17.224Z,91.31
2023-01-10T00:36:45.915Z,91.05
2023-01-10T00:39:14.536Z,91.06
2023-01-10T00:42:00.130Z,90.63
2023-01-10T00:44:29.349Z,90.39
2023-01-10T00:46:57.239Z,91.08
2023-01-10T00:49:25.158Z,91.33
2023-01-10T00:51:53.202Z,91.86
2023-01-10T00:54:21.038Z,91.56
2023-01-10T00:56:48.930Z,91.15
2023-01-10T00:59:16.755Z,91.54
2023-01-10T01:01:46.349Z,91.62
2023-01-10T01:04:17.915Z,90.24
2023-01-10T01:06:47.600Z,90.80
2023-01-10T01:09:16.056Z,89.45
2023-01-10T01:11:44.353Z,89.56
2023-01-10T01:14:12.338Z,90.23
2023-01-10T01:16:40.336Z,89.16
2023-01-10T01:19:09.630Z,88.45
2023-01-10T01:21:37.572Z,89.12
2023-01-10T01:24:05.689Z,88.59
2023-01-10T01:26:35.327Z,88.55
2023-01-10T01:29:03.182Z,88.53
2023-01-10T01:31:31.166Z,89.07
2023-01-10T01:33:59.628Z,88.87
2023-01-10T01:36:28.854Z,88.71
2023-01-10T01:38:56.670Z,89.03
2023-01-10T01:41:42.002Z,90.07
2023-01-10T01:44:16.920Z,89.43
2023-01-10T01:46:48.651Z,89.87
2023-01-10T01:49:21.557Z,91.16
2023-01-10T01:51:56.405Z,90.18
2023-01-10T01:54:24.343Z,90.84
2023-01-10T01:56:55.949Z,89.90
2023-01-10T01:59:27.612Z,89.64
2023-01-10T02:01:58.870Z,90.13
2023-01-10T02:04:31.507Z,89.70
2023-01-10T02:07:00.751Z,89.91
2023-01-10T02:09:36.015Z,89.49
2023-01-10T02:12:04.222Z,89.76
2023-01-10T02:14:34.719Z,89.44
2023-01-10T02:17:02.615Z,88.36
2023-01-10T02:19:44.404Z,88.58
2023-01-10T02:22:51.761Z,88.25
2023-01-10T02:25:47.886Z,88.72
2023-01-10T02:28:53.327Z,88.80
2023-01-10T02:31:43.819Z,88.55
2023-01-10T02:34:21.074Z,89.28
2023-01-10T02:36:56.009Z,87.90
2023-01-10T02:39:30.120Z,88.58
2023-01-10T02:42:03.177Z,88.89
2023-01-10T02:44:36.834Z,86.85
2023-01-10T02:47:05.322Z,88.47
2023-01-10T02:49:44.232Z,88.36
2023-01-10T02:52:14.570Z,88.13
2023-01-10T02:54:43.050Z,88.61
2023-01-10T02:57:45.294Z,87.52
2023-01-10T03:00:31.019Z,88.16
2023-01-10T03:03:09.987Z,88.28
2023-01-10T03:05:53.920Z,87.87
2023-01-10T03:08:31.298Z,87.70
2023-01-10T03:11:01.683Z,88.15
2023-01-10T03:13:36.055Z,88.24
2023-01-10T03:16:08.128Z,87.98
2023-01-10T03:18:40.309Z,87.42
2023-01-10T03:21:11.336Z,88.04
2023-01-10T03:23:40.198Z,86.92
2023-01-10T03:26:10.682Z,88.02
2023-01-10T03:28:46.694Z,86.99
2023-01-10T03:31:19.590Z,87.02
2023-01-10T03:33:49.967Z,87.17
2023-01-10T03:36:31.183Z,87.11
2023-01-10T03:39:07.407Z,88.41
2023-01-10T03:41:41.766Z,87.62
2023-01-10T03:44:34.796Z,87.80
2023-01-10T03:47:09.369Z,88.06
2023-01-10T03:49:40.425Z,88.04
2023-01-10T03:52:14.724Z,88.14
2023-01-10T03:54:44.132Z,87.87
2023-01-10T03:57:18.261Z,88.86
2023-01-10T03:59:46.423Z,89.50
2023-01-10T04:02:14.421Z,89.95
2023-01-10T04:04:42.366Z,90.19
2023-01-10T04:07:11.670Z,90.13
2023-01-10T04:09:39.644Z,91.35
2023-01-10T04:12:08.014Z,91.58
2023-01-10T04:14:35.851Z,91.32
2023-01-10T04:17:04.188Z,91.16
2023-01-10T04:19:32.048Z,91.49
2023-01-10T04:21:59.845Z,91.55
2023-01-10T04:24:29.179Z,92.31
2023-01-10T04:26:57.020Z,92.73
2023-01-10T04:29:24.981Z,92.44
2023-01-10T04:31:52.897Z,91.95
2023-01-10T04:34:21.775Z,91.89
2023-01-10T04:36:50.720Z,92.00
2023-01-10T04:39:18.777Z,92.34
2023-01-10T04:41:48.096Z,92.02
2023-01-10T04:44:16.002Z,91.83
2023-01-10T04:46:44.045Z,90.69
2023-01-10T04:49:12.620Z,91.11
2023-01-10T04:51:40.681Z,91.28
2023-01-10T04:54:08.537Z,91.50
2023-01-10T04:56:36.577Z,91.23
2023-01-10T04:59:06.605Z,90.93
2023-01-10T05:01:35.469Z,90.02
2023-01-10T05:04:04.040Z,90.35
2023-01-10T05:06:31.933Z,89.79
2023-01-10T05:09:00.188Z,90.03
2023-01-10T05:11:28.147Z,90.06
2023-01-10T05:13:56.334Z,89.30
2023-01-10T05:16:26.136Z,89.94
2023-01-10T05:18:54.019Z,90.51
2023-01-10T05:21:21.936Z,89.47
2023-01-10T05:23:50.028Z,89.06
2023-01-10T05:26:19.461Z,88.70
2023-01-10T05:28:47.872Z,90.70
2023-01-10T05:31:17.875Z,90.12
2023-01-10T05:33:48.346Z,89.54
2023-01-10T05:36:16.575Z,89.60
2023-01-10T05:38:44.761Z,89.91
2023-01-10T05:41:12.857Z,89.35
2023-01-10T05:43:40.703Z,89.70
2023-01-10T05:46:08.826Z,89.73
2023-01-10T05:48:37.009Z,88.81
2023-01-10T05:51:06.841Z,89.24
2023-01-10T05:53:34.728Z,88.61
2023-01-10T05:56:03.547Z,88.79
2023-01-10T05:58:31.733Z,88.59
2023-01-10T06:01:00.074Z,88.75
2023-01-10T06:03:28.502Z,88.93
2023-01-10T06:05:57.482Z,89.64
2023-01-10T06:08:26.792Z,89.99
2023-01-10T06:10:54.657Z,89.44
2023-01-10T06:13:22.738Z,89.37
2023-01-10T06:15:50.903Z,90.08
2023-01-10T06:18:18.715Z,90.28
2023-01-10T06:20:46.833Z,91.06
2023-01-10T06:23:15.363Z,90.39
2023-01-10T06:25:44.855Z,91.23
2023-01-10T06:28:14.597Z,91.14
2023-01-10T06:30:44.326Z,91.02
2023-01-10T06:33:13.048Z,90.03
2023-01-10T06:35:41.230Z,90.90
2023-01-10T06:38:09.237Z,90.11
2023-01-10T06:40:37.061Z,89.83
2023-01-10T06:43:06.343Z,89.92
2023-01-10T06:45:34.761Z,90.32
2023-01-10T06:48:02.648Z,90.51
2023-01-10T06:50:31.801Z,91.17
2023-01-10T06:53:00.615Z,90.31
2023-01-10T06:55:29.386Z,90.57
2023-01-10T06:57:57.624Z,89.71
2023-01-10T07:00:28.494Z,90.14
2023-01-10T07:02:57.569Z,89.89
2023-01-10T07:05:25.574Z,90.31
2023-01-10T07:07:53.812Z,90.45
2023-01-10T07:10:21.634Z,90.77
2023-01-10T07:12:49.468Z,91.35
2023-01-10T07:15:17.328Z,91.39
2023-01-10T07:17:46.529Z,90.50
2023-01-10T07:20:14.468Z,90.97
2023-01-10T07:22:42.431Z,90.37
2023-01-10T07:25:10.603Z,90.04
2023-01-10T07:27:39.964Z,89.72
2023-01-10T07:30:09.866Z,89.31
2023-01-10T07:32:37.706Z,88.21
2023-01-10T07:35:07.338Z,89.40
2023-01-10T07:37:35.727Z,88.90
2023-01-10T07:40:03.565Z,88.25
2023-01-10T07:42:32.604Z,88.44
2023-01-10T07:45:00.570Z,87.80
2023-01-10T07:47:29.154Z,88.33
2023-01-10T07:49:57.090Z,89.58
2023-01-10T07:52:26.574Z,89.63
2023-01-10T07:54:54.647Z,89.65
2023-01-10T07:57:30.022Z,89.45
2023-01-10T07:59:58.680Z,88.27
2023-01-10T08:02:26.699Z,88.92
2023-01-10T08:04:54.829Z,88.32
2023-01-10T08:07:22.839Z,87.32
2023-01-10T08:09:52.092Z,88.14
2023-01-10T08:12:19.897Z,87.41
2023-01-10T08:14:48.011Z,87.01
2023-01-10T08:17:15.911Z,87.50
2023-01-10T08:19:44.102Z,87.91
2023-01-10T08:22:12.395Z,87.13
2023-01-10T08:24:40.580Z,87.48
2023-01-10T08:27:09.904Z,88.24
2023-01-10T08:29:38.200Z,86.77
2023-01-10T08:32:06.425Z,87.35
2023-01-10T08:34:34.313Z,86.88
2023-01-10T08:37:02.213Z,86.33
2023-01-10T08:39:31.473Z,85.84
2023-01-10T08:41:59.340Z,85.90
2023-01-10T08:44:28.826Z,85.89
2023-01-10T08:46:56.784Z,85.68
2023-01-10T08:49:24.818Z,85.74
2023-01-10T08:51:52.817Z,85.95
2023-01-10T08:54:20.787Z,85.05
2023-01-10T08:56:48.684Z,85.54
2023-01-10T08:59:17.874Z,85.81
2023-01-10T09:01:47.236Z,84.96
2023-01-10T09:04:15.182Z,84.99
2023-01-10T09:06:43.041Z,84.25
2023-01-10T09:09:11.020Z,84.24
2023-01-10T09:11:41.873Z,85.00
2023-01-10T09:14:09.988Z,84.17
2023-01-10T09:16:37.857Z,83.97
2023-01-10T09:19:07.258Z,83.71
2023-01-10T09:21:35.177Z,83.18
2023-01-10T09:24:03.019Z,84.94
2023-01-10T09:26:32.011Z,84.15
2023-01-10T09:28:59.821Z,83.97
2023-01-10T09:31:27.674Z,83.23
2023-01-10T09:33:55.701Z,83.84
2023-01-10T09:36:24.901Z,84.59
2023-01-10T09:38:52.704Z,82.87
2023-01-10T09:41:44.756Z,82.82
2023-01-10T09:44:20.139Z,81.88
2023-01-10T09:46:58.481Z,82.73
2023-01-10T09:49:45.209Z,82.84
2023-01-10T09:52:23.430Z,83.13
2023-01-10T09:54:53.396Z,84.43
2023-01-10T09:57:23.593Z,84.86
2023-01-10T09:59:54.450Z,84.62
2023-01-10T10:02:30.003Z,84.79
2023-01-10T10:05:12.000Z,83.83
2023-01-10T10:07:41.699Z,84.26
2023-01-10T10:10:16.409Z,84.87
2023-01-10T10:12:50.100Z,83.83
2023-01-10T10:15:31.504Z,83.70
2023-01-10T10:18:11.639Z,83.82
2023-01-10T10:20:51.508Z,84.46
2023-01-10T10:23:34.422Z,83.42
2023-01-10T10:26:07.058Z,82.81
2023-01-10T10:29:10.076Z,82.89
2023-01-10T10:32:08.345Z,83.89
2023-01-10T10:34:41.529Z,84.30
2023-01-10T10:37:15.569Z,83.81
2023-01-10T10:39:51.093Z,84.90
2023-01-10T10:42:20.256Z,82.82
2023-01-10T10:44:54.289Z,82.32
2023-01-10T10:47:24.762Z,84.47
2023-01-10T10:49:59.743Z,83.08
2023-01-10T10:52:32.138Z,84.03
2023-01-10T10:55:02.410Z,81.98
2023-01-10T10:57:38.757Z,83.56
2023-01-10T11:00:15.729Z,81.84
2023-01-10T11:02:48.315Z,82.97
2023-01-10T11:05:21.430Z,80.87
2023-01-10T11:07:51.994Z,81.53
2023-01-10T11:10:40.498Z,82.14
2023-01-10T11:13:33.101Z,82.55
2023-01-10T11:16:01.897Z,82.21
2023-01-10T11:18:31.825Z,81.12
2023-01-10T11:21:03.304Z,81.33
2023-01-10T11:23:42.312Z,80.98
2023-01-10T11:26:24.478Z,80.32
2023-01-10T11:28:53.595Z,80.03
2023-01-10T11:31:28.900Z,80.96
2023-01-10T11:33:58.113Z,81.38
2023-01-10T11:36:26.591Z,80.89
2023-01-10T11:39:02.521Z,80.45
2023-01-10T11:41:34.382Z,80.70
2023-01-10T11:44:18.162Z,80.25
2023-01-10T11:46:47.254Z,80.37
2023-01-10T11:49:19.872Z,81.00
2023-01-10T11:51:50.328Z,81.37
2023-01-10T11:54:22.354Z,80.88
2023-01-10T11:56:57.916Z,81.05
2023-01-10T11:59:27.465Z,82.00
2023-01-10T12:01:58.917Z,82.42
2023-01-10T12:04:30.291Z,81.55
2023-01-10T12:07:01.518Z,81.24
2023-01-10T12:09:42.538Z,81.66
2023-01-10T12:12:22.995Z,81.69
2023-01-10T12:14:52.213Z,81.59
2023-01-10T12:17:27.300Z,81.31
2023-01-10T12:19:58.575Z,81.17
2023-01-10T12:22:32.117Z,80.57
2023-01-10T12:25:01.658Z,81.31
2023-01-10T12:27:32.018Z,80.96
2023-01-10T12:30:06.784Z,80.88
2023-01-10T12:32:40.566Z,79.96
2023-01-10T12:35:16.772Z,79.79
2023-01-10T12:37:51.475Z,79.21
2023-01-10T12:40:27.937Z,78.77
2023-01-10T12:43:21.994Z,79.53
2023-01-10T12:45:53.392Z,78.88
2023-01-10T12:48:28.011Z,79.47
2023-01-10T12:51:00.591Z,79.92
2023-01-10T12:53:33.016Z,79.19
2023-01-10T12:56:06.055Z,79.67
2023-01-10T12:58:43.060Z,78.63
2023-01-10T13:01:16.132Z,78.98
2023-01-10T13:03:46.643Z,78.84
2023-01-10T13:06:22.271Z,78.60
2023-01-10T13:08:51.284Z,78.84
2023-01-10T13:11:23.802Z,79.82
2023-01-10T13:13:59.454Z,78.61
2023-01-10T13:16:37.607Z,78.85
2023-01-10T13:19:23.332Z,78.29
2023-01-10T13:21:52.494Z,78.07
2023-01-10T13:24:24.045Z,77.61
2023-01-10T13:26:54.164Z,77.14
2023-01-10T13:29:26.173Z,76.97
2023-01-10T13:31:58.137Z,77.06
2023-01-10T13:34:33.429Z,77.56
2023-01-10T13:37:06.570Z,77.65
2023-01-10T13:39:40.857Z,76.34
2023-01-10T13:42:45.995Z,76.85
2023-01-10T13:45:34.138Z,77.20
2023-01-10T13:48:24.327Z,77.40
2023-01-10T13:51:08.836Z,78.13
2023-01-10T13:53:46.924Z,77.61
2023-01-10T13:56:34.648Z,77.53
2023-01-10T13:59:21.329Z,78.09
2023-01-10T14:02:12.065Z,78.33
2023-01-10T14:04:46.631Z,76.71
2023-01-10T14:07:24.896Z,77.36
2023-01-10T14:09:59.846Z,77.42
2023-01-10T14:12:34.100Z,77.14
2023-01-10T14:15:08.276Z,78.53
2023-01-10T14:17:39.088Z,78.04
2023-01-10T14:20:22.971Z,76.93
2023-01-10T14:23:05.140Z,77.68
2023-01-10T14:25:35.524Z,77.53
2023-01-10T14:28:04.520Z,77.12
2023-01-10T14:30:35.245Z,77.80
2023-01-10T14:33:14.966Z,76.97
2023-01-10T14:35:46.353Z,76.48
2023-01-10T14:38:20.922Z,76.14
2023-01-10T14:40:52.325Z,77.51
2023-01-10T14:43:24.240Z,76.75
2023-01-10T14:45:59.436Z,77.54
2023-01-10T14:48:32.518Z,77.08
2023-01-10T14:51:11.557Z,76.34
2023-01-10T14:53:39.884Z,77.05
2023-01-10T14:56:19.517Z,76.38
2023-01-10T14:58:47.512Z,77.65
2023-01-10T15:01:23.342Z,77.02
2023-01-10T15:03:53.804Z,77.43
2023-01-10T15:06:21.954Z,76.57
2023-01-10T15:09:01.037Z,76.79
2023-01-10T15:11:31.615Z,76.90
2023-01-10T15:14:05.203Z,76.80
2023-01-10T15:16:34.760Z,76.66
2023-01-10T15:19:04.318Z,76.00
2023-01-10T15:21:32.190Z,75.99
2023-01-10T15:24:00.070Z,76.06
2023-01-10T15:26:33.357Z,76.42
2023-01-10T15:29:08.340Z,75.80
2023-01-10T15:31:38.571Z,76.30
2023-01-10T15:34:11.588Z,76.26
2023-01-10T15:36:44.706Z,76.09
2023-01-10T15:39:21.070Z,76.07
2023-01-10T15:41:49.309Z,76.18
2023-01-10T15:44:25.773Z,75.66
2023-01-10T15:46:57.768Z,74.86
2023-01-10T15:49:28.209Z,75.42
2023-01-10T15:51:56.668Z,75.64
2023-01-10T15:54:34.778Z,75.32
2023-01-10T15:57:08.038Z,75.71
2023-01-10T15:59:39.844Z,75.54
2023-01-10T16:02:22.652Z,75.67
2023-01-10T16:04:54.940Z,75.77
2023-01-10T16:07:27.536Z,75.84
2023-01-10T16:09:58.922Z,76.53
2023-01-10T16:12:47.350Z,76.85
2023-01-10T16:15:21.749Z,76.15
2023-01-10T16:17:50.716Z,76.53
2023-01-10T16:20:22.497Z,76.32
2023-01-10T16:22:51.134Z,76.61
2023-01-10T16:25:21.919Z,76.28
2023-01-10T16:27:49.756Z,77.08
2023-01-10T16:30:29.262Z,75.82
2023-01-10T16:32:59.064Z,76.52
2023-01-10T16:35:28.609Z,76.72
2023-01-10T16:37:58.501Z,76.47
2023-01-10T16:40:29.632Z,76.97
2023-01-10T16:43:15.296Z,76.47
2023-01-10T16:45:43.364Z,76.56
2023-01-10T16:48:11.918Z,76.80
2023-01-10T16:50:42.202Z,76.67
2023-01-10T16:53:12.848Z,77.37
2023-01-10T16:55:42.989Z,76.87
2023-01-10T16:58:12.198Z,77.13
2023-01-10T17:00:42.224Z,77.72
2023-01-10T17:03:15.422Z,76.84
2023-01-10T17:05:44.952Z,76.95
2023-01-10T17:08:17.761Z,77.35
2023-01-10T17:10:48.030Z,77.16
2023-01-10T17:13:22.335Z,77.40
2023-01-10T17:15:50.361Z,77.35
2023-01-10T17:18:19.799Z,77.48
2023-01-10T17:20:49.093Z,77.92
2023-01-10T17:23:18.326Z,77.59
2023-01-10T17:25:47.371Z,78.30
2023-01-10T17:28:19.578Z,77.95
2023-01-10T17:30:47.577Z,78.40
2023-01-10T17:33:15.625Z,78.66
2023-01-10T17:35:45.199Z,78.28
2023-01-10T17:38:16.276Z,77.49
2023-01-10T17:40:45.863Z,78.19
2023-01-10T17:43:14.694Z,77.87
2023-01-10T17:45:43.016Z,78.11
2023-01-10T17:48:13.009Z,77.93
2023-01-10T17:50:40.888Z,78.05
2023-01-10T17:53:08.930Z,77.03
2023-01-10T17:55:38.817Z,77.95
2023-01-10T17:58:06.628Z,77.75
2023-01-10T18:00:36.136Z,76.97
2023-01-10T18:03:04.455Z,77.74
2023-01-10T18:05:34.186Z,77.42
2023-01-10T18:08:02.398Z,77.67
2023-01-10T18:10:30.781Z,77.63
2023-01-10T18:13:03.456Z,77.62
2023-01-10T18:15:32.006Z,77.44
2023-01-10T18:17:59.989Z,77.89
2023-01-10T18:20:28.072Z,77.68
2023-01-10T18:23:13.589Z,78.22
2023-01-10T18:25:41.652Z,77.50
2023-01-10T18:28:10.866Z,76.35
2023-01-10T18:30:40.587Z,77.21
2023-01-10T18:33:08.481Z,76.46
2023-01-10T18:35:36.333Z,76.64
2023-01-10T18:38:04.237Z,76.13
2023-01-10T18:40:34.571Z,76.44
2023-01-10T18:43:02.629Z,75.87
2023-01-10T18:45:32.008Z,75.65
2023-01-10T18:48:01.691Z,75.19
2023-01-10T18:50:29.481Z,74.66
2023-01-10T18:52:57.815Z,75.28
2023-01-10T18:55:25.918Z,73.86
2023-01-10T18:57:53.748Z,74.56
2023-01-10T19:00:22.206Z,74.53
2023-01-10T19:02:53.111Z,74.23
2023-01-10T19:05:21.294Z,73.61
2023-01-10T19:07:50.006Z,73.79
2023-01-10T19:10:19.023Z,73.31
2023-01-10T19:12:46.913Z,73.04
2023-01-10T19:15:18.691Z,74.13
2023-01-10T19:17:46.719Z,74.13
2023-01-10T19:20:16.191Z,73.94
2023-01-10T19:22:46.190Z,74.06
2023-01-10T19:25:15.277Z,73.77
2023-01-10T19:27:43.218Z,73.32
2023-01-10T19:30:12.361Z,73.76
2023-01-10T19:32:40.801Z,73.48
2023-01-10T19:35:09.357Z,73.23
2023-01-10T19:37:38.664Z,72.18
2023-01-10T19:40:07.792Z,72.71
2023-01-10T19:42:37.522Z,71.92
2023-01-10T19:45:06.366Z,72.29
2023-01-10T19:47:34.235Z,72.64
2023-01-10T19:50:02.072Z,71.92
2023-01-10T19:52:30.129Z,71.82
2023-01-10T19:54:59.340Z,71.78
2023-01-10T19:57:27.194Z,71.67
2023-01-10T19:59:56.734Z,71.60
2023-01-10T20:02:25.509Z,71.57
2023-01-10T20:04:53.725Z,71.99
2023-01-10T20:07:21.594Z,71.18
2023-01-10T20:09:49.742Z,70.82
2023-01-10T20:12:18.964Z,71.15
2023-01-10T20:14:47.014Z,70.94
2023-01-10T20:17:14.854Z,71.00
2023-01-10T20:19:42.957Z,72.31
2023-01-10T20:22:11.148Z,72.83
2023-01-10T20:24:39.150Z,73.22
2023-01-10T20:27:09.452Z,73.82
2023-01-10T20:29:40.853Z,73.96
2023-01-10T20:32:08.742Z,74.09
2023-01-10T20:34:36.664Z,75.25
2023-01-10T20:37:04.619Z,76.17
2023-01-10T20:39:32.997Z,76.72
2023-01-10T20:42:00.964Z,78.18
2023-01-10T20:44:31.121Z,78.61
2023-01-10T20:47:00.333Z,78.53
2023-01-10T20:49:28.267Z,79.85
2023-01-10T20:51:56.345Z,79.91
2023-01-10T20:54:25.482Z,81.12
2023-01-10T20:56:53.466Z,82.57
2023-01-10T20:59:21.483Z,82.84
2023-01-10T21:01:49.358Z,84.11
2023-01-10T21:04:18.881Z,83.94
2023-01-10T21:06:47.072Z,83.43
2023-01-10T21:09:16.630Z,83.85
2023-01-10T21:11:59.862Z,84.57
2023-01-10T21:14:32.526Z,85.53
2023-01-10T21:17:00.376Z,85.05
2023-01-10T21:19:29.598Z,85.94
2023-01-10T21:21:57.762Z,85.61
2023-01-10T21:24:26.665Z,87.29
2023-01-10T21:26:54.937Z,86.63
2023-01-10T21:29:22.918Z,87.00
2023-01-10T21:31:52.743Z,86.66
2023-01-10T21:34:20.997Z,87.21
2023-01-10T21:36:51.466Z,86.87
2023-01-10T21:39:19.499Z,86.57
2023-01-10T21:42:04.680Z,86.82
2023-01-10T21:44:32.613Z,86.94
2023-01-10T21:47:00.535Z,87.03
2023-01-10T21:49:28.521Z,87.54
2023-01-10T21:51:57.874Z,88.33
2023-01-10T21:54:26.366Z,88.61
2023-01-10T21:56:54.402Z,88.64
2023-01-10T21:59:25.681Z,88.74
2023-01-10T22:01:53.559Z,89.18
2023-01-10T22:04:21.740Z,89.67
2023-01-10T22:06:50.043Z,88.80
2023-01-10T22:09:19.498Z,89.44
2023-01-10T22:11:47.561Z,89.93
2023-01-10T22:14:15.486Z,90.32
2023-01-10T22:16:43.387Z,91.12
2023-01-10T22:19:11.554Z,91.06
2023-01-10T22:21:39.659Z,91.76
2023-01-10T22:24:08.320Z,91.67
2023-01-10T22:26:38.071Z,92.25
2023-01-10T22:29:06.126Z,92.46
2023-01-10T22:31:34.361Z,92.56
2023-01-10T22:34:02.439Z,93.33
2023-01-10T22:36:30.443Z,93.88
2023-01-10T22:38:58.323Z,94.25
2023-01-10T22:41:27.496Z,94.13
2023-01-10T22:43:57.111Z,93.80
2023-01-10T22:46:25.290Z,94.03
2023-01-10T22:48:54.075Z,94.71
2023-01-10T22:51:23.081Z,95.23
2023-01-10T22:53:52.095Z,95.39
2023-01-10T22:56:20.480Z,95.29
2023-01-10T22:58:48.942Z,95.95
2023-01-10T23:01:20.608Z,95.74
2023-01-10T23:03:49.295Z,95.44
2023-01-10T23:06:18.063Z,95.04
2023-01-10T23:08:47.851Z,94.95
2023-01-10T23:11:20.367Z,95.29
2023-01-10T23:13:49.263Z,95.81
2023-01-10T23:16:22.028Z,95.19
2023-01-10T23:18:51.003Z,95.07
2023-01-10T23:21:19.279Z,95.65
2023-01-10T23:23:47.828Z,94.67
2023-01-10T23:26:15.953Z,95.01
2023-01-10T23:28:47.822Z,94.90
2023-01-10T23:31:17.521Z,95.48
2023-01-10T23:33:47.164Z,95.02
2023-01-10T23:36:16.123Z,95.78
2023-01-10T23:38:44.865Z,95.56
2023-01-10T23:41:12.942Z,96.30
2023-01-10T23:43:40.947Z,96.46
2023-01-10T23:46:09.733Z,96.05
2023-01-10T23:48:37.822Z,96.24
2023-01-10T23:51:07.849Z,96.23
2023-01-10T23:53:35.837Z,96.56
2023-01-10T23:56:07.734Z,96.47
2023-01-10T23:58:35.619Z,95.90
